Time,TemperatureF,DewpointF,PressureIn,WindDirection,WindDirectionDegrees,WindSpeedMPH,WindSpeedGustMPH,Humidity,HourlyPrecipIn,Conditions,Clouds,dailyrainin,SoftwareType,DateUTC
2013-02-11 00:00:00,49.6,49.1,27.90,SSW,202,0.0,1.1,98,0.00,,---,0.00,VWS V14.01,2013-02-11 05:00:00,
2013-02-11 00:06:00,49.6,49.1,27.90,West,270,0.0,2.0,98,0.00,,---,0.00,VWS V14.01,2013-02-11 05:06:00,
2013-02-11 00:11:00,49.6,49.1,27.90,SE,135,0.0,1.1,98,0.00,,---,0.00,VWS V14.01,2013-02-11 05:11:00,
2013-02-11 00:16:00,49.8,49.3,27.90,SE,135,2.5,3.1,98,0.00,,---,0.00,VWS V14.01,2013-02-11 05:16:00,
2013-02-11 00:21:00,49.8,49.3,27.90,East,90,0.9,0.9,98,0.00,,---,0.00,VWS V14.01,2013-02-11 05:21:00,
2013-02-11 00:26:00,49.8,49.3,27.90,SSW,202,1.3,3.4,98,0.00,,---,0.00,VWS V14.01,2013-02-11 05:26:00,
2013-02-11 00:31:00,49.6,49.1,27.90,WSW,248,1.3,3.1,98,0.00,,---,0.00,VWS V14.01,2013-02-11 05:31:00,
2013-02-11 00:36:00,49.6,49.1,27.90,WNW,292,0.0,0.0,98,0.00,,---,0.00,VWS V14.01,2013-02-11 05:36:00,
2013-02-11 00:41:00,49.6,49.1,27.90,ESE,112,0.0,0.9,98,0.00,,---,0.00,VWS V14.01,2013-02-11 05:41:00,
2013-02-11 00:46:00,49.6,49.1,27.90,WSW,248,0.9,0.9,98,0.00,,---,0.00,VWS V14.01,2013-02-11 05:46:00,
2013-02-11 00:51:00,49.5,48.9,27.90,SSE,158,0.0,1.6,98,0.00,,---,0.00,VWS V14.01,2013-02-11 05:51:00,
2013-02-11 00:56:00,49.5,48.9,27.90,West,270,2.7,2.9,98,0.00,,---,0.00,VWS V14.01,2013-02-11 05:56:00,
2013-02-11 01:01:00,49.5,48.9,27.90,ENE,68,5.6,5.6,98,0.00,,---,0.00,VWS V14.01,2013-02-11 06:01:00,
2013-02-11 01:06:00,49.5,48.9,27.90,SSW,202,1.6,1.6,98,0.00,,---,0.00,VWS V14.01,2013-02-11 06:06:00,
2013-02-11 01:11:00,49.5,48.9,27.90,SW,225,2.7,2.7,98,0.00,,---,0.00,VWS V14.01,2013-02-11 06:11:00,
2013-02-11 01:16:00,49.5,48.9,27.88,East,90,0.9,0.9,98,0.00,,---,0.00,VWS V14.01,2013-02-11 06:16:00,
2013-02-11 01:22:00,49.5,48.9,27.88,ENE,68,0.0,2.7,98,0.00,,---,0.00,VWS V14.01,2013-02-11 06:22:00,
2013-02-11 01:27:00,49.3,48.7,27.88,ENE,68,0.0,0.9,98,0.00,,---,0.00,VWS V14.01,2013-02-11 06:27:00,
2013-02-11 01:32:00,49.3,48.7,27.88,South,180,2.7,6.0,98,0.00,,---,0.00,VWS V14.01,2013-02-11 06:32:00,
2013-02-11 01:37:00,49.5,48.9,27.90,West,270,1.1,3.1,98,0.00,,---,0.00,VWS V14.01,2013-02-11 06:37:00,
2013-02-11 01:42:00,49.5,48.9,27.90,South,180,0.0,4.9,98,0.00,,---,0.00,VWS V14.01,2013-02-11 06:42:00,
2013-02-11 01:47:00,49.3,48.7,27.90,SSE,158,2.5,2.5,98,0.00,,---,0.00,VWS V14.01,2013-02-11 06:47:00,
2013-02-11 01:52:00,49.5,48.9,27.90,South,180,3.8,3.8,98,0.00,,---,0.00,VWS V14.01,2013-02-11 06:52:00,
2013-02-11 01:57:00,49.5,48.9,27.90,SSE,158,0.0,2.0,98,0.00,,---,0.00,VWS V14.01,2013-02-11 06:57:00,
2013-02-11 02:02:00,49.5,48.9,27.90,SE,135,0.0,1.1,98,0.00,,---,0.00,VWS V14.01,2013-02-11 07:02:00,
2013-02-11 02:07:00,49.5,48.9,27.90,SE,135,2.7,2.7,98,0.00,,---,0.00,VWS V14.01,2013-02-11 07:07:00,
2013-02-11 02:12:00,49.5,48.9,27.90,ENE,68,0.0,0.0,98,0.00,,---,0.00,VWS V14.01,2013-02-11 07:12:00,
2013-02-11 02:17:00,49.5,48.9,27.90,SSE,158,3.6,3.6,98,0.00,,---,0.00,VWS V14.01,2013-02-11 07:17:00,
2013-02-11 02:22:00,49.5,48.9,27.90,SE,135,1.3,5.8,98,0.00,,---,0.00,VWS V14.01,2013-02-11 07:22:00,
2013-02-11 02:27:00,49.5,48.9,27.90,ESE,112,2.5,5.6,98,0.00,,---,0.00,VWS V14.01,2013-02-11 07:27:00,
2013-02-11 02:32:00,49.5,48.9,27.90,SSE,158,0.0,1.3,98,0.00,,---,0.00,VWS V14.01,2013-02-11 07:32:00,
2013-02-11 02:37:00,49.5,48.9,27.90,SSE,158,0.0,1.3,98,0.00,,---,0.00,VWS V14.01,2013-02-11 07:37:00,
2013-02-11 02:42:00,49.5,48.9,27.90,ESE,112,0.0,2.0,98,0.00,,---,0.00,VWS V14.01,2013-02-11 07:42:00,
2013-02-11 02:48:00,49.5,48.9,27.90,ESE,112,1.1,1.1,98,0.00,,---,0.00,VWS V14.01,2013-02-11 07:48:00,
2013-02-11 02:53:00,49.5,48.9,27.90,East,90,0.0,2.0,98,0.00,,---,0.00,VWS V14.01,2013-02-11 07:53:00,
2013-02-11 02:58:00,49.5,48.9,27.90,East,90,0.0,2.0,98,0.00,,---,0.00,VWS V14.01,2013-02-11 07:58:00,
2013-02-11 03:03:00,49.6,49.1,27.90,SSE,158,0.0,2.5,98,0.00,,---,0.00,VWS V14.01,2013-02-11 08:03:00,
2013-02-11 03:08:00,49.6,49.1,27.90,SSE,158,0.0,0.0,98,0.00,,---,0.00,VWS V14.01,2013-02-11 08:08:00,
2013-02-11 03:13:00,49.6,49.1,27.90,SE,135,0.0,0.0,98,0.00,,---,0.00,VWS V14.01,2013-02-11 08:13:00,
2013-02-11 03:18:00,49.6,49.1,27.90,ESE,112,0.0,1.6,98,0.00,,---,0.00,VWS V14.01,2013-02-11 08:18:00,
2013-02-11 03:23:00,49.6,49.1,27.90,East,90,0.0,0.0,98,0.00,,---,0.00,VWS V14.01,2013-02-11 08:23:00,
2013-02-11 03:28:00,49.6,49.1,27.90,SE,135,0.0,0.0,98,0.00,,---,0.00,VWS V14.01,2013-02-11 08:28:00,
2013-02-11 03:33:00,49.6,49.1,27.90,SSE,158,0.0,2.0,98,0.00,,---,0.00,VWS V14.01,2013-02-11 08:33:00,
2013-02-11 03:38:00,49.8,49.3,27.90,East,90,0.9,0.9,98,0.00,,---,0.00,VWS V14.01,2013-02-11 08:38:00,
2013-02-11 03:43:00,49.8,49.3,27.90,ESE,112,0.0,0.0,98,0.00,,---,0.00,VWS V14.01,2013-02-11 08:43:00,
2013-02-11 03:49:00,49.6,49.1,27.93,SE,135,2.0,2.0,98,0.00,,---,0.00,VWS V14.01,2013-02-11 08:49:00,
2013-02-11 03:54:00,49.6,49.1,27.93,SE,135,0.0,0.0,98,0.00,,---,0.00,VWS V14.01,2013-02-11 08:54:00,
2013-02-11 03:59:00,49.6,49.1,27.93,North,0,0.0,0.0,98,0.00,,---,0.00,VWS V14.01,2013-02-11 08:59:00,
2013-02-11 04:04:00,49.6,49.1,27.90,ESE,112,3.8,3.8,98,0.00,,---,0.00,VWS V14.01,2013-02-11 09:04:00,
2013-02-11 04:09:00,49.6,49.1,27.90,ESE,112,0.0,0.0,98,0.00,,---,0.00,VWS V14.01,2013-02-11 09:09:00,
2013-02-11 04:14:00,49.6,49.1,27.90,ESE,112,0.0,0.0,98,0.00,,---,0.00,VWS V14.01,2013-02-11 09:14:00,
2013-02-11 04:19:00,49.6,49.1,27.90,East,90,2.2,2.2,98,0.00,,---,0.00,VWS V14.01,2013-02-11 09:19:00,
2013-02-11 04:24:00,49.6,49.1,27.90,South,180,1.3,1.3,98,0.00,,---,0.00,VWS V14.01,2013-02-11 09:24:00,
2013-02-11 04:29:00,49.6,49.1,27.90,ESE,112,0.9,2.0,98,0.00,,---,0.00,VWS V14.01,2013-02-11 09:29:00,
2013-02-11 04:34:00,49.6,49.1,27.90,ENE,68,0.9,1.1,98,0.00,,---,0.00,VWS V14.01,2013-02-11 09:34:00,
2013-02-11 04:39:00,49.8,49.3,27.90,SE,135,0.0,2.0,98,0.00,,---,0.00,VWS V14.01,2013-02-11 09:39:00,
2013-02-11 04:44:00,49.8,49.3,27.90,SE,135,0.0,0.9,98,0.00,,---,0.00,VWS V14.01,2013-02-11 09:44:00,
2013-02-11 04:49:00,49.6,49.1,27.90,SSE,158,0.0,1.6,98,0.00,,---,0.00,VWS V14.01,2013-02-11 09:49:00,
2013-02-11 04:55:00,49.8,49.3,27.90,SSW,202,0.0,0.0,98,0.00,,---,0.00,VWS V14.01,2013-02-11 09:55:00,
2013-02-11 05:00:00,49.6,49.1,27.90,East,90,0.0,1.6,98,0.00,,---,0.00,VWS V14.01,2013-02-11 10:00:00,
2013-02-11 05:05:00,49.6,49.1,27.90,East,90,0.0,0.0,98,0.00,,---,0.00,VWS V14.01,2013-02-11 10:05:00,
2013-02-11 05:10:00,49.6,49.1,27.90,East,90,0.0,0.0,98,0.00,,---,0.00,VWS V14.01,2013-02-11 10:10:00,
2013-02-11 05:15:00,49.6,49.1,27.90,East,90,0.0,0.0,98,0.00,,---,0.00,VWS V14.01,2013-02-11 10:15:00,
2013-02-11 05:20:00,49.6,49.1,27.90,ESE,112,0.0,1.3,98,0.00,,---,0.00,VWS V14.01,2013-02-11 10:20:00,
2013-02-11 05:25:00,49.6,49.1,27.90,East,90,0.0,0.0,98,0.00,,---,0.00,VWS V14.01,2013-02-11 10:25:00,
2013-02-11 05:30:00,49.8,49.3,27.90,East,90,1.1,1.1,98,0.00,,---,0.00,VWS V14.01,2013-02-11 10:30:00,
2013-02-11 05:35:00,49.6,49.1,27.90,East,90,0.0,0.0,98,0.00,,---,0.00,VWS V14.01,2013-02-11 10:35:00,
2013-02-11 05:40:00,49.8,49.3,27.90,ESE,112,0.0,0.0,98,0.00,,---,0.00,VWS V14.01,2013-02-11 10:40:00,
2013-02-11 05:45:00,49.8,49.3,27.90,ESE,112,0.0,0.0,98,0.00,,---,0.00,VWS V14.01,2013-02-11 10:45:00,
2013-02-11 05:50:00,50.0,49.5,27.90,WSW,248,0.0,0.0,98,0.00,,---,0.00,VWS V14.01,2013-02-11 10:50:00,
2013-02-11 05:56:00,50.2,49.6,27.90,WSW,248,0.0,0.0,98,0.00,,---,0.00,VWS V14.01,2013-02-11 10:56:00,
2013-02-11 06:01:00,50.2,49.6,27.90,WSW,248,0.0,0.0,98,0.00,,---,0.00,VWS V14.01,2013-02-11 11:01:00,
2013-02-11 06:06:00,50.4,49.8,27.90,SSW,202,0.0,0.0,98,0.00,,---,0.00,VWS V14.01,2013-02-11 11:06:00,
2013-02-11 06:11:00,50.7,50.2,27.90,WSW,248,0.0,0.0,98,0.00,,---,0.00,VWS V14.01,2013-02-11 11:11:00,
2013-02-11 06:16:00,50.9,50.4,27.90,East,90,0.0,1.1,98,0.00,,---,0.00,VWS V14.01,2013-02-11 11:16:00,
2013-02-11 06:21:00,51.1,50.5,27.90,SSW,202,0.0,0.0,98,0.00,,---,0.00,VWS V14.01,2013-02-11 11:21:00,
2013-02-11 06:26:00,51.3,50.7,27.90,SSW,202,0.0,0.0,98,0.00,,---,0.00,VWS V14.01,2013-02-11 11:26:00,
2013-02-11 06:31:00,51.4,50.9,27.90,SSW,202,0.0,0.0,98,0.00,,---,0.00,VWS V14.01,2013-02-11 11:31:00,
2013-02-11 06:36:00,51.4,50.9,27.90,West,270,0.0,0.0,98,0.00,,---,0.00,VWS V14.01,2013-02-11 11:36:00,
2013-02-11 06:41:00,51.4,50.9,27.90,WSW,248,0.0,1.1,98,0.00,,---,0.00,VWS V14.01,2013-02-11 11:41:00,
2013-02-11 06:46:00,51.4,50.9,27.90,SW,225,4.0,4.0,98,0.00,,---,0.00,VWS V14.01,2013-02-11 11:46:00,
2013-02-11 06:51:00,51.6,51.1,27.90,SSW,202,1.6,2.7,98,0.00,,---,0.00,VWS V14.01,2013-02-11 11:51:00,
2013-02-11 06:56:00,51.6,51.1,27.90,SW,225,0.9,2.0,98,0.00,,---,0.00,VWS V14.01,2013-02-11 11:56:00,
2013-02-11 07:02:00,51.6,51.1,27.93,SSW,202,0.0,1.3,98,0.00,,---,0.00,VWS V14.01,2013-02-11 12:02:00,
2013-02-11 07:07:00,51.6,51.1,27.93,South,180,0.0,0.0,98,0.00,,---,0.00,VWS V14.01,2013-02-11 12:07:00,
2013-02-11 07:12:00,51.6,51.1,27.93,WSW,248,2.7,2.7,98,0.00,,---,0.00,VWS V14.01,2013-02-11 12:12:00,
2013-02-11 07:17:00,51.6,51.1,27.93,WNW,292,1.3,2.9,98,0.00,,---,0.00,VWS V14.01,2013-02-11 12:17:00,
2013-02-11 07:22:00,51.6,51.1,27.93,SW,225,0.9,0.9,98,0.00,,---,0.00,VWS V14.01,2013-02-11 12:22:00,
2013-02-11 07:27:00,51.6,51.1,27.93,SSW,202,0.0,2.0,98,0.00,,---,0.00,VWS V14.01,2013-02-11 12:27:00,
2013-02-11 07:32:00,51.6,51.1,27.93,SW,225,0.0,0.0,98,0.00,,---,0.00,VWS V14.01,2013-02-11 12:32:00,
2013-02-11 07:37:00,51.6,51.1,27.93,SSW,202,0.0,0.0,98,0.00,,---,0.00,VWS V14.01,2013-02-11 12:37:00,
2013-02-11 07:42:00,51.6,51.1,27.93,WSW,248,0.0,0.0,98,0.00,,---,0.00,VWS V14.01,2013-02-11 12:42:00,
2013-02-11 07:47:00,51.6,51.1,27.93,WSW,248,2.5,3.1,98,0.00,,---,0.00,VWS V14.01,2013-02-11 12:47:00,
2013-02-11 07:52:00,51.6,51.1,27.93,WNW,292,0.0,0.0,98,0.00,,---,0.00,VWS V14.01,2013-02-11 12:52:00,
2013-02-11 07:57:00,51.6,51.1,27.93,South,180,2.7,2.7,98,0.00,,---,0.00,VWS V14.01,2013-02-11 12:57:00,
2013-02-11 08:02:00,51.6,51.1,27.93,SW,225,0.0,0.0,98,0.00,,---,0.00,VWS V14.01,2013-02-11 13:02:00,
2013-02-11 08:07:00,51.6,51.1,27.93,WSW,248,0.0,0.0,98,0.00,,---,0.00,VWS V14.01,2013-02-11 13:07:00,
2013-02-11 08:13:00,51.6,51.1,27.93,WSW,248,0.0,0.0,98,0.00,,---,0.00,VWS V14.01,2013-02-11 13:13:00,
2013-02-11 08:18:00,51.6,51.1,27.93,West,270,0.0,0.0,98,0.00,,---,0.00,VWS V14.01,2013-02-11 13:18:00,
2013-02-11 08:23:00,51.6,51.1,27.93,SSW,202,0.0,0.0,98,0.00,,---,0.00,VWS V14.01,2013-02-11 13:23:00,
2013-02-11 08:28:00,51.6,51.1,27.93,West,270,0.0,0.0,98,0.00,,---,0.00,VWS V14.01,2013-02-11 13:28:00,
2013-02-11 08:33:00,51.6,51.1,27.93,NW,315,0.0,0.0,98,0.00,,---,0.00,VWS V14.01,2013-02-11 13:33:00,
2013-02-11 08:38:00,51.6,51.1,27.93,North,0,0.0,0.0,98,0.00,,---,0.00,VWS V14.01,2013-02-11 13:38:00,
2013-02-11 08:43:00,51.6,51.1,27.93,East,90,0.0,0.0,98,0.00,,---,0.00,VWS V14.01,2013-02-11 13:43:00,
2013-02-11 08:48:00,51.6,51.1,27.96,SW,225,0.0,0.9,98,0.00,,---,0.00,VWS V14.01,2013-02-11 13:48:00,
2013-02-11 08:53:00,51.6,51.1,27.96,SSW,202,0.0,0.9,98,0.00,,---,0.00,VWS V14.01,2013-02-11 13:53:00,
2013-02-11 08:58:00,51.8,51.3,27.96,WNW,292,0.0,0.0,98,0.00,,---,0.00,VWS V14.01,2013-02-11 13:58:00,
2013-02-11 09:03:00,51.8,51.3,27.96,NE,45,0.9,0.9,98,0.00,,---,0.00,VWS V14.01,2013-02-11 14:03:00,
2013-02-11 09:08:00,51.8,51.3,27.96,WSW,248,0.0,0.0,98,0.00,,---,0.00,VWS V14.01,2013-02-11 14:08:00,
2013-02-11 09:13:00,51.8,51.3,27.96,East,90,0.0,0.0,98,0.00,,---,0.00,VWS V14.01,2013-02-11 14:13:00,
2013-02-11 09:18:00,51.8,51.3,27.96,WSW,248,1.1,1.1,98,0.00,,---,0.00,VWS V14.01,2013-02-11 14:18:00,
2013-02-11 09:23:00,51.8,51.3,27.96,SSW,202,1.6,1.6,98,0.00,,---,0.00,VWS V14.01,2013-02-11 14:23:00,
2013-02-11 09:28:00,51.8,51.3,27.96,NW,315,2.7,2.7,98,0.00,,---,0.00,VWS V14.01,2013-02-11 14:28:00,
2013-02-11 09:33:00,51.8,51.3,27.96,WNW,292,0.0,0.0,98,0.00,,---,0.00,VWS V14.01,2013-02-11 14:33:00,
2013-02-11 09:38:00,51.8,51.3,27.96,WNW,292,0.0,0.0,98,0.00,,---,0.00,VWS V14.01,2013-02-11 14:38:00,
2013-02-11 09:43:00,52.0,51.4,27.96,East,90,2.0,2.0,98,0.00,,---,0.00,VWS V14.01,2013-02-11 14:43:00,
2013-02-11 09:48:00,51.8,51.3,27.96,East,90,0.0,2.0,98,0.00,,---,0.00,VWS V14.01,2013-02-11 14:48:00,
2013-02-11 09:53:00,51.8,51.3,27.96,WSW,248,1.6,1.6,98,0.00,,---,0.00,VWS V14.01,2013-02-11 14:53:00,
2013-02-11 09:58:00,51.8,51.3,27.96,WSW,248,0.0,0.0,98,0.00,,---,0.00,VWS V14.01,2013-02-11 14:58:00,
2013-02-11 10:03:00,51.8,51.3,27.99,NNE,22,0.0,0.9,98,0.00,,---,0.00,VWS V14.01,2013-02-11 15:03:00,
2013-02-11 10:08:00,52.2,51.6,27.99,SW,225,2.0,2.0,98,0.00,,---,0.00,VWS V14.01,2013-02-11 15:08:00,
2013-02-11 10:14:00,52.2,51.6,27.99,SE,135,2.2,2.2,98,0.00,,---,0.00,VWS V14.01,2013-02-11 15:14:00,
2013-02-11 10:19:00,52.2,51.6,27.99,NW,315,0.0,1.1,98,0.00,,---,0.00,VWS V14.01,2013-02-11 15:19:00,
2013-02-11 10:24:00,51.8,51.3,27.99,SSW,202,2.2,2.2,98,0.00,,---,0.00,VWS V14.01,2013-02-11 15:24:00,
2013-02-11 10:29:00,51.8,51.0,27.99,SE,135,0.0,0.0,97,0.00,,---,0.00,VWS V14.01,2013-02-11 15:29:00,
2013-02-11 10:34:00,51.8,51.0,27.99,SE,135,2.0,2.5,97,0.00,,---,0.00,VWS V14.01,2013-02-11 15:34:00,
2013-02-11 10:39:00,51.8,50.7,27.99,North,0,0.9,0.9,96,0.00,,---,0.00,VWS V14.01,2013-02-11 15:39:00,
2013-02-11 10:44:00,51.6,49.7,27.99,WSW,248,0.9,0.9,93,0.00,,---,0.00,VWS V14.01,2013-02-11 15:44:00,
2013-02-11 10:49:00,51.8,49.3,27.96,SE,135,2.2,2.2,91,0.00,,---,0.00,VWS V14.01,2013-02-11 15:49:00,
2013-02-11 10:54:00,52.0,49.4,27.96,NE,45,0.0,0.0,91,0.00,,---,0.00,VWS V14.01,2013-02-11 15:54:00,
2013-02-11 10:59:00,52.0,48.8,27.96,East,90,0.0,2.0,89,0.00,,---,0.00,VWS V14.01,2013-02-11 15:59:00,
2013-02-11 11:04:00,52.0,48.2,27.96,NNW,338,0.9,0.9,87,0.00,,---,0.00,VWS V14.01,2013-02-11 16:04:00,
2013-02-11 11:09:00,51.6,46.0,27.96,NNW,338,0.0,0.9,81,0.00,,---,0.00,VWS V14.01,2013-02-11 16:09:00,
2013-02-11 11:14:00,51.6,46.3,27.96,WSW,248,0.0,0.0,82,0.00,,---,0.00,VWS V14.01,2013-02-11 16:14:00,
2013-02-11 11:19:00,51.6,45.7,27.96,NE,45,1.3,1.6,80,0.00,,---,0.00,VWS V14.01,2013-02-11 16:19:00,
2013-02-11 11:24:00,51.4,44.5,27.96,ENE,68,0.0,1.6,77,0.00,,---,0.00,VWS V14.01,2013-02-11 16:24:00,
2013-02-11 11:29:00,51.6,44.3,27.96,NE,45,0.0,1.1,76,0.00,,---,0.00,VWS V14.01,2013-02-11 16:29:00,
2013-02-11 11:34:00,52.0,43.2,27.96,SW,225,1.1,1.1,72,0.00,,---,0.00,VWS V14.01,2013-02-11 16:34:00,
2013-02-11 11:39:00,52.3,43.2,27.96,NE,45,0.0,1.3,71,0.00,,---,0.00,VWS V14.01,2013-02-11 16:39:00,
2013-02-11 11:44:00,52.7,43.9,27.96,WSW,248,0.0,0.0,72,0.00,,---,0.00,VWS V14.01,2013-02-11 16:44:00,
2013-02-11 11:49:00,52.7,42.5,27.99,East,90,0.9,0.9,68,0.00,,---,0.00,VWS V14.01,2013-02-11 16:49:00,
2013-02-11 11:54:00,52.5,41.5,27.99,SW,225,0.0,1.1,66,0.00,,---,0.00,VWS V14.01,2013-02-11 16:54:00,
2013-02-11 11:59:00,52.5,39.9,27.99,West,270,0.0,0.9,62,0.00,,---,0.00,VWS V14.01,2013-02-11 16:59:00,
2013-02-11 12:04:00,52.3,39.3,27.99,NNW,338,1.1,1.1,61,0.00,,---,0.00,VWS V14.01,2013-02-11 17:04:00,
2013-02-11 12:09:00,52.2,37.4,27.99,SW,225,0.0,2.2,57,0.00,,---,0.00,VWS V14.01,2013-02-11 17:09:00,
2013-02-11 12:14:00,52.2,37.4,27.99,South,180,2.5,2.7,57,0.00,,---,0.00,VWS V14.01,2013-02-11 17:14:00,
2013-02-11 12:19:00,52.3,38.0,27.99,WNW,292,2.7,2.7,58,0.00,,---,0.00,VWS V14.01,2013-02-11 17:19:00,
2013-02-11 12:24:00,52.2,36.5,27.99,ESE,112,2.2,2.2,55,0.00,,---,0.00,VWS V14.01,2013-02-11 17:24:00,
2013-02-11 12:30:00,52.2,37.4,27.99,North,0,0.0,1.3,57,0.00,,---,0.00,VWS V14.01,2013-02-11 17:30:00,
2013-02-11 12:35:00,52.2,37.4,27.99,NE,45,2.0,2.0,57,0.00,,---,0.00,VWS V14.01,2013-02-11 17:35:00,
2013-02-11 12:40:00,52.2,37.0,27.99,South,180,0.0,1.3,56,0.00,,---,0.00,VWS V14.01,2013-02-11 17:40:00,
2013-02-11 12:45:00,52.2,36.5,27.99,SE,135,4.3,4.7,55,0.00,,---,0.00,VWS V14.01,2013-02-11 17:45:00,
2013-02-11 12:50:00,52.0,35.9,27.99,East,90,0.9,2.0,54,0.00,,---,0.00,VWS V14.01,2013-02-11 17:50:00,
2013-02-11 12:55:00,51.8,35.2,27.99,ESE,112,1.6,1.6,53,0.00,,---,0.00,VWS V14.01,2013-02-11 17:55:00,
2013-02-11 13:00:00,51.8,35.7,27.99,East,90,0.0,1.6,54,0.00,,---,0.00,VWS V14.01,2013-02-11 18:00:00,
2013-02-11 13:05:00,51.8,35.7,27.99,WSW,248,2.2,2.2,54,0.00,,---,0.00,VWS V14.01,2013-02-11 18:05:00,
2013-02-11 13:10:00,51.8,36.2,27.99,NE,45,0.0,2.0,55,0.00,,---,0.00,VWS V14.01,2013-02-11 18:10:00,
2013-02-11 13:15:00,51.8,36.6,27.99,SSW,202,0.0,0.0,56,0.00,,---,0.00,VWS V14.01,2013-02-11 18:15:00,
2013-02-11 13:20:00,51.8,37.1,27.99,NNE,22,0.0,0.0,57,0.00,,---,0.00,VWS V14.01,2013-02-11 18:20:00,
2013-02-11 13:25:00,51.8,37.9,27.99,WNW,292,0.0,0.0,59,0.00,,---,0.00,VWS V14.01,2013-02-11 18:25:00,
2013-02-11 13:30:00,51.8,37.5,27.99,ENE,68,0.9,1.6,58,0.00,,---,0.00,VWS V14.01,2013-02-11 18:30:00,
2013-02-11 13:35:00,52.0,38.1,27.96,ENE,68,2.0,2.0,59,0.00,,---,0.00,VWS V14.01,2013-02-11 18:35:00,
2013-02-11 13:41:00,52.0,38.5,27.96,SE,135,0.0,0.0,60,0.00,,---,0.00,VWS V14.01,2013-02-11 18:41:00,
2013-02-11 13:46:00,52.2,38.7,27.96,WSW,248,1.3,1.3,60,0.00,,---,0.00,VWS V14.01,2013-02-11 18:46:00,
2013-02-11 13:51:00,52.0,38.1,27.96,NNW,338,0.0,0.0,59,0.00,,---,0.00,VWS V14.01,2013-02-11 18:51:00,
2013-02-11 13:56:00,52.0,38.1,27.96,SW,225,1.6,3.6,59,0.00,,---,0.00,VWS V14.01,2013-02-11 18:56:00,
2013-02-11 14:01:00,52.0,37.7,27.96,SW,225,2.2,2.2,58,0.00,,---,0.00,VWS V14.01,2013-02-11 19:01:00,
2013-02-11 14:06:00,52.0,37.7,27.99,WSW,248,1.1,1.1,58,0.00,,---,0.00,VWS V14.01,2013-02-11 19:06:00,
2013-02-11 14:11:00,51.8,38.4,27.99,East,90,0.0,0.0,60,0.00,,---,0.00,VWS V14.01,2013-02-11 19:11:00,
2013-02-11 14:16:00,51.8,36.2,27.99,South,180,5.6,5.6,55,0.00,,---,0.00,VWS V14.01,2013-02-11 19:16:00,
2013-02-11 14:21:00,51.8,36.6,27.96,SE,135,3.1,3.1,56,0.00,,---,0.00,VWS V14.01,2013-02-11 19:21:00,
2013-02-11 14:26:00,52.0,35.9,27.96,SE,135,1.1,2.0,54,0.00,,---,0.00,VWS V14.01,2013-02-11 19:26:00,
2013-02-11 14:31:00,52.0,36.3,27.96,SSE,158,0.0,0.0,55,0.00,,---,0.00,VWS V14.01,2013-02-11 19:31:00,
2013-02-11 14:36:00,52.2,36.5,27.96,SSE,158,0.0,0.0,55,0.00,,---,0.00,VWS V14.01,2013-02-11 19:36:00,
2013-02-11 14:41:00,52.3,36.7,27.96,West,270,0.0,2.2,55,0.00,,---,0.00,VWS V14.01,2013-02-11 19:41:00,
2013-02-11 14:46:00,52.5,36.4,27.96,East,90,0.0,1.6,54,0.00,,---,0.00,VWS V14.01,2013-02-11 19:46:00,
2013-02-11 14:51:00,52.9,36.7,27.96,SSE,158,1.1,1.6,54,0.00,,---,0.00,VWS V14.01,2013-02-11 19:51:00,
2013-02-11 14:56:00,53.1,35.9,27.96,South,180,0.9,0.9,52,0.00,,---,0.00,VWS V14.01,2013-02-11 19:56:00,
2013-02-11 15:01:00,53.1,34.4,27.96,SW,225,4.3,4.3,49,0.00,,---,0.00,VWS V14.01,2013-02-11 20:01:00,
2013-02-11 15:06:00,53.2,34.6,27.96,NW,315,5.6,5.6,49,0.00,,---,0.00,VWS V14.01,2013-02-11 20:06:00,
2013-02-11 15:11:00,53.2,34.6,27.96,ENE,68,2.5,2.5,49,0.00,,---,0.00,VWS V14.01,2013-02-11 20:11:00,
2013-02-11 15:16:00,53.1,33.4,27.96,SSW,202,2.2,2.2,47,0.00,,---,0.00,VWS V14.01,2013-02-11 20:16:00,
2013-02-11 15:21:00,52.7,33.0,27.96,West,270,1.6,1.6,47,0.00,,---,0.00,VWS V14.01,2013-02-11 20:21:00,
2013-02-11 15:26:00,52.5,32.9,27.96,WNW,292,0.0,0.0,47,0.00,,---,0.00,VWS V14.01,2013-02-11 20:26:00,
2013-02-11 15:31:00,52.3,33.2,27.96,WNW,292,2.5,2.5,48,0.00,,---,0.00,VWS V14.01,2013-02-11 20:31:00,
2013-02-11 15:36:00,52.2,33.1,27.96,NNW,338,1.1,2.5,48,0.00,,---,0.00,VWS V14.01,2013-02-11 20:36:00,
2013-02-11 15:41:00,52.2,33.1,27.96,East,90,0.0,0.0,48,0.00,,---,0.00,VWS V14.01,2013-02-11 20:41:00,
2013-02-11 15:46:00,52.0,33.4,27.96,SE,135,0.0,0.9,49,0.00,,---,0.00,VWS V14.01,2013-02-11 20:46:00,
2013-02-11 15:51:00,51.8,33.3,27.96,NNE,22,2.5,2.5,49,0.00,,---,0.00,VWS V14.01,2013-02-11 20:51:00,
2013-02-11 15:57:00,51.8,33.3,27.96,WSW,248,0.0,0.0,49,0.00,,---,0.00,VWS V14.01,2013-02-11 20:57:00,
2013-02-11 16:02:00,51.6,33.1,27.96,East,90,1.6,1.6,49,0.00,,---,0.00,VWS V14.01,2013-02-11 21:02:00,
2013-02-11 16:07:00,51.4,32.9,27.96,SSW,202,0.9,0.9,49,0.00,,---,0.00,VWS V14.01,2013-02-11 21:07:00,
2013-02-11 16:12:00,51.4,32.9,27.96,WSW,248,0.0,0.0,49,0.00,,---,0.00,VWS V14.01,2013-02-11 21:12:00,
2013-02-11 16:17:00,51.4,32.4,27.96,NNE,22,0.9,0.9,48,0.00,,---,0.00,VWS V14.01,2013-02-11 21:17:00,
2013-02-11 16:22:00,51.4,32.4,27.96,WSW,248,0.0,2.2,48,0.00,,---,0.00,VWS V14.01,2013-02-11 21:22:00,
2013-02-11 16:27:00,51.4,32.4,27.96,NNE,22,1.6,1.6,48,0.00,,---,0.00,VWS V14.01,2013-02-11 21:27:00,
2013-02-11 16:32:00,51.4,32.4,27.96,ESE,112,0.0,0.0,48,0.00,,---,0.00,VWS V14.01,2013-02-11 21:32:00,
2013-02-11 16:37:00,51.4,32.4,27.96,WSW,248,0.0,0.9,48,0.00,,---,0.00,VWS V14.01,2013-02-11 21:37:00,
2013-02-11 16:42:00,51.3,31.7,27.96,SW,225,0.9,2.0,47,0.00,,---,0.00,VWS V14.01,2013-02-11 21:42:00,
2013-02-11 16:47:00,51.3,31.7,27.96,East,90,0.0,0.9,47,0.00,,---,0.00,VWS V14.01,2013-02-11 21:47:00,
2013-02-11 16:52:00,51.1,31.6,27.96,WSW,248,1.1,1.1,47,0.00,,---,0.00,VWS V14.01,2013-02-11 21:52:00,
2013-02-11 16:57:00,50.9,30.9,27.96,SSW,202,0.0,1.3,46,0.00,,---,0.00,VWS V14.01,2013-02-11 21:57:00,
2013-02-11 17:02:00,50.7,30.7,27.96,ESE,112,1.1,1.1,46,0.00,,---,0.00,VWS V14.01,2013-02-11 22:02:00,
2013-02-11 17:07:00,50.5,30.5,27.96,NNE,22,0.0,0.0,46,0.00,,---,0.00,VWS V14.01,2013-02-11 22:07:00,
2013-02-11 17:12:00,50.5,30.0,27.96,West,270,1.6,2.5,45,0.00,,---,0.00,VWS V14.01,2013-02-11 22:12:00,
2013-02-11 17:17:00,50.4,29.8,27.96,NE,45,2.0,2.0,45,0.00,,---,0.00,VWS V14.01,2013-02-11 22:17:00,
2013-02-11 17:23:00,50.2,29.1,27.96,North,0,1.6,1.6,44,0.00,,---,0.00,VWS V14.01,2013-02-11 22:23:00,
2013-02-11 17:28:00,49.6,28.6,27.96,East,90,2.0,2.0,44,0.00,,---,0.00,VWS V14.01,2013-02-11 22:28:00,
2013-02-11 17:33:00,49.5,29.0,27.96,ENE,68,1.3,1.3,45,0.00,,---,0.00,VWS V14.01,2013-02-11 22:33:00,
2013-02-11 17:38:00,49.1,28.7,27.96,NNE,22,1.1,1.1,45,0.00,,---,0.00,VWS V14.01,2013-02-11 22:38:00,
2013-02-11 17:43:00,48.9,28.5,27.96,NE,45,1.1,1.1,45,0.00,,---,0.00,VWS V14.01,2013-02-11 22:43:00,
2013-02-11 17:48:00,48.7,28.9,27.96,East,90,0.0,0.0,46,0.00,,---,0.00,VWS V14.01,2013-02-11 22:48:00,
2013-02-11 17:53:00,48.4,28.6,27.96,WSW,248,1.3,1.3,46,0.00,,---,0.00,VWS V14.01,2013-02-11 22:53:00,
2013-02-11 17:58:00,48.2,28.4,27.96,WSW,248,0.0,0.0,46,0.00,,---,0.00,VWS V14.01,2013-02-11 22:58:00,
2013-02-11 18:03:00,47.8,28.6,27.96,WNW,292,0.0,0.0,47,0.00,,---,0.00,VWS V14.01,2013-02-11 23:03:00,
2013-02-11 18:08:00,47.7,28.4,27.96,WSW,248,1.3,1.3,47,0.00,,---,0.00,VWS V14.01,2013-02-11 23:08:00,
2013-02-11 18:13:00,47.7,28.4,27.96,ENE,68,1.1,1.1,47,0.00,,---,0.00,VWS V14.01,2013-02-11 23:13:00,
2013-02-11 18:18:00,47.3,28.1,27.96,East,90,0.0,0.0,47,0.00,,---,0.00,VWS V14.01,2013-02-11 23:18:00,
2013-02-11 18:24:00,47.3,28.1,27.96,SE,135,0.0,0.0,47,0.00,,---,0.00,VWS V14.01,2013-02-11 23:24:00,
2013-02-11 18:29:00,46.9,28.3,27.96,NNE,22,0.0,0.0,48,0.00,,---,0.00,VWS V14.01,2013-02-11 23:29:00,
2013-02-11 18:34:00,46.8,27.6,27.96,East,90,0.0,0.0,47,0.00,,---,0.00,VWS V14.01,2013-02-11 23:34:00,
2013-02-11 18:39:00,46.8,28.1,27.96,East,90,0.0,0.0,48,0.00,,---,0.00,VWS V14.01,2013-02-11 23:39:00,
2013-02-11 18:44:00,46.4,28.3,27.96,East,90,0.0,0.0,49,0.00,,---,0.00,VWS V14.01,2013-02-11 23:44:00,
2013-02-11 18:49:00,46.0,27.5,27.96,East,90,0.0,0.0,48,0.00,,---,0.00,VWS V14.01,2013-02-11 23:49:00,
2013-02-11 18:54:00,45.7,27.6,27.96,East,90,0.0,0.0,49,0.00,,---,0.00,VWS V14.01,2013-02-11 23:54:00,
2013-02-11 18:59:00,45.7,27.6,27.96,East,90,0.0,0.0,49,0.00,,---,0.00,VWS V14.01,2013-02-11 23:59:00,
2013-02-11 19:04:00,45.5,27.0,27.96,East,90,0.0,0.0,48,0.00,,---,0.00,VWS V14.01,2013-02-12 00:04:00,
2013-02-11 19:09:00,45.5,27.0,27.96,East,90,0.0,0.0,48,0.00,,---,0.00,VWS V14.01,2013-02-12 00:09:00,
2013-02-11 19:14:00,45.5,27.0,27.96,East,90,0.0,0.0,48,0.00,,---,0.00,VWS V14.01,2013-02-12 00:14:00,
2013-02-11 19:19:00,45.7,27.1,27.96,East,90,0.0,0.0,48,0.00,,---,0.00,VWS V14.01,2013-02-12 00:19:00,
2013-02-11 19:24:00,45.5,27.0,27.96,East,90,0.0,0.0,48,0.00,,---,0.00,VWS V14.01,2013-02-12 00:24:00,
2013-02-11 19:29:00,45.3,26.8,27.96,East,90,0.0,0.0,48,0.00,,---,0.00,VWS V14.01,2013-02-12 00:29:00,
2013-02-11 19:34:00,45.0,26.5,27.96,East,90,0.0,0.0,48,0.00,,---,0.00,VWS V14.01,2013-02-12 00:34:00,
2013-02-11 19:39:00,44.8,26.3,27.96,East,90,0.0,0.0,48,0.00,,---,0.00,VWS V14.01,2013-02-12 00:39:00,
2013-02-11 19:44:00,44.6,26.1,27.96,East,90,0.0,0.0,48,0.00,,---,0.00,VWS V14.01,2013-02-12 00:44:00,
2013-02-11 19:50:00,44.4,26.5,27.96,East,90,0.0,0.0,49,0.00,,---,0.00,VWS V14.01,2013-02-12 00:50:00,
2013-02-11 19:55:00,44.2,26.3,27.96,East,90,0.0,0.0,49,0.00,,---,0.00,VWS V14.01,2013-02-12 00:55:00,
2013-02-11 20:00:00,44.1,26.1,27.96,East,90,0.0,0.0,49,0.00,,---,0.00,VWS V14.01,2013-02-12 01:00:00,
2013-02-11 20:05:00,43.5,25.6,27.96,East,90,0.0,0.0,49,0.00,,---,0.00,VWS V14.01,2013-02-12 01:05:00,
2013-02-11 20:10:00,43.3,26.0,27.96,East,90,0.0,0.0,50,0.00,,---,0.00,VWS V14.01,2013-02-12 01:10:00,
2013-02-11 20:15:00,43.0,25.6,27.96,East,90,0.0,0.0,50,0.00,,---,0.00,VWS V14.01,2013-02-12 01:15:00,
2013-02-11 20:20:00,43.0,25.6,27.96,East,90,0.0,0.0,50,0.00,,---,0.00,VWS V14.01,2013-02-12 01:20:00,
2013-02-11 20:25:00,42.8,25.5,27.96,East,90,0.0,0.0,50,0.00,,---,0.00,VWS V14.01,2013-02-12 01:25:00,
2013-02-11 20:30:00,42.8,25.5,27.96,East,90,0.0,0.0,50,0.00,,---,0.00,VWS V14.01,2013-02-12 01:30:00,
2013-02-11 20:35:00,42.8,25.5,27.96,East,90,0.0,0.0,50,0.00,,---,0.00,VWS V14.01,2013-02-12 01:35:00,
2013-02-11 20:40:00,42.6,25.8,27.96,East,90,0.0,0.0,51,0.00,,---,0.00,VWS V14.01,2013-02-12 01:40:00,
2013-02-11 20:45:00,42.4,25.6,27.96,East,90,0.0,0.0,51,0.00,,---,0.00,VWS V14.01,2013-02-12 01:45:00,
2013-02-11 20:50:00,42.3,25.4,27.96,East,90,0.0,0.0,51,0.00,,---,0.00,VWS V14.01,2013-02-12 01:50:00,
2013-02-11 20:55:00,42.3,25.9,27.96,East,90,0.0,0.0,52,0.00,,---,0.00,VWS V14.01,2013-02-12 01:55:00,
2013-02-11 21:00:00,42.3,25.4,27.96,East,90,0.0,0.0,51,0.00,,---,0.00,VWS V14.01,2013-02-12 02:00:00,
2013-02-11 21:05:00,42.3,25.4,27.96,East,90,0.0,0.0,51,0.00,,---,0.00,VWS V14.01,2013-02-12 02:05:00,
2013-02-11 21:10:00,42.1,25.3,27.96,East,90,0.0,0.0,51,0.00,,---,0.00,VWS V14.01,2013-02-12 02:10:00,
2013-02-11 21:15:00,42.3,25.9,27.96,East,90,0.0,0.0,52,0.00,,---,0.00,VWS V14.01,2013-02-12 02:15:00,
2013-02-11 21:20:00,42.3,25.9,27.99,East,90,0.0,0.0,52,0.00,,---,0.00,VWS V14.01,2013-02-12 02:20:00,
2013-02-11 21:25:00,42.6,26.2,27.99,East,90,0.0,0.0,52,0.00,,---,0.00,VWS V14.01,2013-02-12 02:25:00,
2013-02-11 21:30:00,42.6,26.2,27.99,East,90,0.0,0.0,52,0.00,,---,0.00,VWS V14.01,2013-02-12 02:30:00,
2013-02-11 21:36:00,42.6,26.2,27.99,South,180,0.0,0.0,52,0.00,,---,0.00,VWS V14.01,2013-02-12 02:36:00,
2013-02-11 21:41:00,42.4,26.1,27.99,South,180,0.0,0.0,52,0.00,,---,0.00,VWS V14.01,2013-02-12 02:41:00,
2013-02-11 21:46:00,42.3,26.4,27.99,South,180,0.0,0.0,53,0.00,,---,0.00,VWS V14.01,2013-02-12 02:46:00,
2013-02-11 21:51:00,42.3,26.4,27.99,South,180,0.0,0.0,53,0.00,,---,0.00,VWS V14.01,2013-02-12 02:51:00,
2013-02-11 21:56:00,42.3,26.4,27.99,South,180,0.0,0.0,53,0.00,,---,0.00,VWS V14.01,2013-02-12 02:56:00,
2013-02-11 22:01:00,42.3,26.4,27.99,South,180,0.0,0.0,53,0.00,,---,0.00,VWS V14.01,2013-02-12 03:01:00,
2013-02-11 22:06:00,42.3,26.4,27.96,South,180,0.0,0.0,53,0.00,,---,0.00,VWS V14.01,2013-02-12 03:06:00,
2013-02-11 22:11:00,42.3,26.4,27.96,South,180,0.0,0.0,53,0.00,,---,0.00,VWS V14.01,2013-02-12 03:11:00,
2013-02-11 22:16:00,42.1,26.2,27.96,South,180,0.0,0.0,53,0.00,,---,0.00,VWS V14.01,2013-02-12 03:16:00,
2013-02-11 22:21:00,42.1,26.2,27.99,South,180,0.0,0.0,53,0.00,,---,0.00,VWS V14.01,2013-02-12 03:21:00,
2013-02-11 22:26:00,41.9,26.0,27.99,South,180,0.0,0.0,53,0.00,,---,0.00,VWS V14.01,2013-02-12 03:26:00,
2013-02-11 22:31:00,41.9,26.5,27.99,South,180,0.0,0.0,54,0.00,,---,0.00,VWS V14.01,2013-02-12 03:31:00,
2013-02-11 22:36:00,41.9,26.5,27.99,South,180,0.0,0.0,54,0.00,,---,0.00,VWS V14.01,2013-02-12 03:36:00,
2013-02-11 22:41:00,42.3,26.4,27.99,South,180,0.0,0.0,53,0.00,,---,0.00,VWS V14.01,2013-02-12 03:41:00,
2013-02-11 22:46:00,42.4,27.0,27.99,South,180,0.0,0.0,54,0.00,,---,0.00,VWS V14.01,2013-02-12 03:46:00,
2013-02-11 22:51:00,42.6,26.7,27.99,South,180,0.0,0.0,53,0.00,,---,0.00,VWS V14.01,2013-02-12 03:51:00,
2013-02-11 22:56:00,42.4,26.5,27.99,South,180,0.0,0.0,53,0.00,,---,0.00,VWS V14.01,2013-02-12 03:56:00,
2013-02-11 23:02:00,42.4,26.5,27.99,North,0,0.0,0.0,53,0.00,,---,0.00,VWS V14.01,2013-02-12 04:02:00,
2013-02-11 23:07:00,42.4,26.5,27.99,North,0,0.0,0.0,53,0.00,,---,0.00,VWS V14.01,2013-02-12 04:07:00,
2013-02-11 23:12:00,42.4,26.5,27.99,North,0,0.0,0.0,53,0.00,,---,0.00,VWS V14.01,2013-02-12 04:12:00,
2013-02-11 23:17:00,41.9,26.5,27.96,North,0,0.0,0.0,54,0.00,,---,0.00,VWS V14.01,2013-02-12 04:17:00,
2013-02-11 23:22:00,41.9,26.5,27.96,North,0,0.0,0.0,54,0.00,,---,0.00,VWS V14.01,2013-02-12 04:22:00,
2013-02-11 23:27:00,41.7,26.3,27.96,North,0,0.0,0.0,54,0.00,,---,0.00,VWS V14.01,2013-02-12 04:27:00,
2013-02-11 23:32:00,41.9,26.5,27.96,North,0,0.0,0.0,54,0.00,,---,0.00,VWS V14.01,2013-02-12 04:32:00,
2013-02-11 23:37:00,41.9,26.5,27.96,North,0,0.0,0.0,54,0.00,,---,0.00,VWS V14.01,2013-02-12 04:37:00,
2013-02-11 23:42:00,41.9,26.5,27.96,North,0,0.0,0.0,54,0.00,,---,0.00,VWS V14.01,2013-02-12 04:42:00,
2013-02-11 23:47:00,41.9,26.9,27.96,North,0,0.0,0.0,55,0.00,,---,0.00,VWS V14.01,2013-02-12 04:47:00,
2013-02-11 23:52:00,41.7,26.8,27.99,North,0,0.0,0.0,55,0.00,,---,0.00,VWS V14.01,2013-02-12 04:52:00,
2013-02-11 23:57:00,41.7,26.8,27.99,North,0,0.0,0.0,55,0.00,,---,0.00,VWS V14.01,2013-02-12 04:57:00,